Time;durP1;ratioP1;P1;durP2;ratioP2;P2;SDS_P1;SDS_P2;PMS_P1;PMS_P2;Temp;Humidity;BMP_temperature;BMP_pressure;BME280_temperature;BME280_humidity;BME280_pressure;Samples;Min_cycle;Max_cycle;Signal;HPM_P1;HPM_P2
2022/12/14 00:01:55;;;;;;;0.68;0.40;;;21.10;91.60;;;;;;5088609;28;20660;-82
2022/12/14 00:04:26;;;;;;;1.83;0.22;;;21.10;91.90;;;;;;5089673;28;20197;-82
2022/12/14 00:06:57;;;;;;;2.58;0.32;;;21.10;91.80;;;;;;5090056;28;20558;-82
2022/12/14 00:09:28;;;;;;;1.20;0.30;;;21.10;91.80;;;;;;5082334;28;20199;-82
2022/12/14 00:11:59;;;;;;;1.83;0.40;;;21.20;90.60;;;;;;5088676;28;20214;-82
2022/12/14 00:14:32;;;;;;;0.75;0.38;;;21.10;90.70;;;;;;5088999;28;20233;-82
2022/12/14 00:17:02;;;;;;;0.60;0.30;;;20.80;91.10;;;;;;5087435;28;20588;-82
2022/12/14 00:19:33;;;;;;;0.43;0.20;;;20.70;91.70;;;;;;5086254;28;20196;-82
2022/12/14 00:22:05;;;;;;;0.90;0.38;;;20.70;91.20;;;;;;5085345;28;20253;-82
2022/12/14 00:24:36;;;;;;;1.83;0.50;;;20.60;91.50;;;;;;5089529;28;20195;-82
2022/12/14 00:27:08;;;;;;;0.85;0.40;;;20.50;91.40;;;;;;5090296;28;20282;-83
2022/12/14 00:29:40;;;;;;;2.78;0.40;;;20.70;87.70;;;;;;5095088;28;20613;-82
2022/12/14 00:32:12;;;;;;;3.22;0.40;;;20.50;87.40;;;;;;5090615;28;20223;-81
2022/12/14 00:34:42;;;;;;;0.80;0.57;;;20.70;84.80;;;;;;5087169;28;20196;-82
2022/12/14 00:37:14;;;;;;;2.08;0.52;;;20.90;77.70;;;;;;5089766;28;20662;-81
2022/12/14 00:39:45;;;;;;;1.40;0.40;;;21.00;73.00;;;;;;5088687;28;20278;-81
2022/12/14 00:42:16;;;;;;;1.90;0.60;;;21.00;72.40;;;;;;5092209;28;20646;-81
2022/12/14 00:44:48;;;;;;;4.43;0.70;;;21.10;73.10;;;;;;5092265;28;20204;-81
2022/12/14 00:47:19;;;;;;;2.17;0.77;;;21.40;69.80;;;;;;5091002;28;20211;-82
2022/12/14 00:49:50;;;;;;;2.42;0.73;;;21.50;70.20;;;;;;5092474;28;20192;-81
2022/12/14 00:52:21;;;;;;;2.53;0.60;;;21.60;67.50;;;;;;5094587;28;20258;-81
2022/12/14 00:54:51;;;;;;;3.15;0.80;;;21.50;67.50;;;;;;5109117;28;20696;-81
2022/12/14 00:57:22;;;;;;;1.27;0.60;;;21.60;66.50;;;;;;5108721;28;20207;-80
2022/12/14 00:59:56;;;;;;;3.05;0.80;;;21.90;63.90;;;;;;5098709;28;20650;-82
2022/12/14 01:02:26;;;;;;;2.50;0.70;;;21.80;61.10;;;;;;5093472;28;20205;-83
2022/12/14 01:04:58;;;;;;;1.77;0.52;;;21.90;60.60;;;;;;5094443;28;20509;-82
2022/12/14 01:07:29;;;;;;;1.88;0.52;;;22.00;59.30;;;;;;5093225;28;20278;-82
2022/12/14 01:10:00;;;;;;;1.50;0.55;;;22.20;58.10;;;;;;5073899;28;20677;-82
2022/12/14 01:12:31;;;;;;;2.35;0.77;;;22.30;56.70;;;;;;5079459;28;20324;-82
2022/12/14 01:15:04;;;;;;;2.40;0.65;;;22.30;51.80;;;;;;5091187;28;20268;-83
2022/12/14 01:17:35;;;;;;;1.65;0.60;;;22.50;51.50;;;;;;5091804;28;20206;-83
2022/12/14 01:20:06;;;;;;;1.70;0.45;;;22.40;51.00;;;;;;5091572;28;21635;-82
2022/12/14 01:22:37;;;;;;;1.95;0.60;;;22.50;49.80;;;;;;5098945;28;20696;-84
2022/12/14 01:25:11;;;;;;;1.13;0.70;;;22.30;48.30;;;;;;5091594;28;20195;-84
2022/12/14 01:27:42;;;;;;;2.35;0.88;;;22.30;48.80;;;;;;5097860;28;20198;-83
2022/12/14 01:30:17;;;;;;;1.25;0.50;;;22.40;49.10;;;;;;5074950;28;20194;-83
2022/12/14 01:32:47;;;;;;;3.20;0.77;;;22.70;50.00;;;;;;5091666;28;20283;-83
2022/12/14 01:35:19;;;;;;;3.90;1.48;;;22.80;48.10;;;;;;5091646;28;20192;-82
2022/12/14 01:37:50;;;;;;;2.03;0.70;;;23.00;48.30;;;;;;5093518;28;20210;-83
2022/12/14 01:40:21;;;;;;;1.90;0.57;;;23.00;48.20;;;;;;5092355;28;20199;-82
2022/12/14 01:42:52;;;;;;;4.25;1.05;;;23.00;47.00;;;;;;5092072;28;20736;-83
2022/12/14 01:45:26;;;;;;;1.90;0.70;;;23.10;45.70;;;;;;5084269;28;20194;-83
2022/12/14 01:48:00;;;;;;;1.92;0.90;;;23.10;45.50;;;;;;5092150;28;20211;-83
2022/12/14 01:50:36;;;;;;;1.80;0.90;;;23.10;45.30;;;;;;5091720;28;20245;-82
2022/12/14 01:53:10;;;;;;;4.35;1.27;;;22.90;45.10;;;;;;5089159;28;20237;-83
2022/12/14 01:55:44;;;;;;;4.40;0.57;;;22.80;46.10;;;;;;5086779;28;20219;-82
2022/12/14 01:58:18;;;;;;;3.42;0.52;;;23.10;44.60;;;;;;5080717;28;20557;-82
2022/12/14 02:00:52;;;;;;;1.63;0.52;;;23.20;45.50;;;;;;5089045;28;20201;-81
2022/12/14 02:03:25;;;;;;;2.90;0.60;;;23.20;45.40;;;;;;5091164;28;20654;-83
2022/12/14 02:05:58;;;;;;;1.38;0.63;;;23.20;45.00;;;;;;5071534;28;20269;-82
2022/12/14 02:08:30;;;;;;;0.85;0.50;;;23.40;45.40;;;;;;5091045;28;20680;-82
2022/12/14 02:11:01;;;;;;;2.17;0.52;;;23.60;45.00;;;;;;5089575;28;20195;-83
2022/12/14 02:13:35;;;;;;;2.83;0.65;;;23.80;42.20;;;;;;5087097;28;20705;-82
2022/12/14 02:16:09;;;;;;;3.65;0.70;;;23.50;42.60;;;;;;5091538;28;20593;-81
2022/12/14 02:18:40;;;;;;;3.65;0.60;;;23.50;44.20;;;;;;5091735;28;20657;-82
2022/12/14 02:21:23;;;;;;;1.33;0.50;;;23.50;42.90;;;;;;5091758;28;20195;-82
2022/12/14 02:24:15;;;;;;;2.25;0.60;;;23.00;43.40;;;;;;5088714;28;20285;-81
2022/12/14 02:27:06;;;;;;;1.27;0.52;;;23.10;43.90;;;;;;5095167;28;20654;-81
2022/12/14 02:30:12;;;;;;;4.40;0.88;;;23.50;43.90;;;;;;5085897;28;20280;-82
2022/12/14 02:33:17;;;;;;;1.65;0.57;;;24.10;42.70;;;;;;5075586;28;20297;-82
2022/12/14 02:35:51;;;;;;;1.23;0.60;;;24.10;41.00;;;;;;5100243;28;20205;-82
2022/12/14 02:38:37;;;;;;;2.40;0.88;;;24.00;41.40;;;;;;5080120;28;20290;-82
2022/12/14 02:41:16;;;;;;;1.40;0.40;;;24.10;41.40;;;;;;5090897;28;20252;-82
2022/12/14 02:43:57;;;;;;;0.60;0.40;;;24.20;39.40;;;;;;5089911;28;20191;-82
2022/12/14 02:46:36;;;;;;;1.65;0.43;;;24.10;41.20;;;;;;5089389;28;20227;-82
2022/12/14 02:49:12;;;;;;;0.95;0.35;;;24.50;40.70;;;;;;5091040;28;20198;-82
2022/12/14 02:51:53;;;;;;;1.92;0.50;;;24.80;40.70;;;;;;5093074;28;20195;-82
2022/12/14 02:54:29;;;;;;;1.17;0.50;;;24.80;39.60;;;;;;5089579;28;20239;-82
2022/12/14 02:57:05;;;;;;;3.15;0.60;;;24.70;39.20;;;;;;5089623;28;20197;-83
2022/12/14 02:59:37;;;;;;;1.60;0.22;;;24.80;38.50;;;;;;5090429;28;20202;-82
2022/12/14 03:02:13;;;;;;;3.97;0.80;;;25.10;38.20;;;;;;5089298;28;20207;-82
2022/12/14 03:04:47;;;;;;;1.48;0.57;;;25.10;36.40;;;;;;5091948;28;20199;-82
2022/12/14 03:07:40;;;;;;;2.10;0.50;;;24.90;35.90;;;;;;5089280;28;20202;-83
2022/12/14 03:10:21;;;;;;;1.30;0.50;;;25.00;36.40;;;;;;5090531;28;20248;-83
2022/12/14 03:12:57;;;;;;;3.42;0.85;;;25.40;36.00;;;;;;5091092;28;20705;-84
2022/12/14 03:15:29;;;;;;;1.25;0.50;;;24.90;35.30;;;;;;5089834;28;20313;-82
2022/12/14 03:18:07;;;;;;;1.85;0.50;;;24.70;35.50;;;;;;5075392;28;20194;-82
2022/12/14 03:20:41;;;;;;;1.42;0.50;;;24.70;35.60;;;;;;5080222;28;20563;-82
2022/12/14 03:23:17;;;;;;;3.22;0.60;;;25.10;37.50;;;;;;5091171;28;20203;-83
2022/12/14 03:25:50;;;;;;;0.57;0.40;;;25.40;35.90;;;;;;5088277;28;20191;-83
2022/12/14 03:28:25;;;;;;;2.42;0.40;;;25.30;35.30;;;;;;5099199;28;20195;-83
2022/12/14 03:31:02;;;;;;;1.40;0.40;;;25.60;35.90;;;;;;5090203;28;20199;-83
2022/12/14 03:33:36;;;;;;;2.13;0.63;;;25.70;36.00;;;;;;5090357;28;20228;-82
2022/12/14 03:36:13;;;;;;;2.72;0.73;;;25.70;34.40;;;;;;5077244;28;20191;-82
2022/12/14 03:38:46;;;;;;;2.53;0.40;;;25.50;34.00;;;;;;5079519;28;20194;-83
2022/12/14 03:41:24;;;;;;;1.77;0.40;;;25.30;33.20;;;;;;5089604;28;20573;-85
2022/12/14 03:44:09;;;;;;;1.90;0.30;;;25.30;34.00;;;;;;5080055;28;20205;-84
2022/12/14 03:46:49;;;;;;;1.65;0.60;;;25.50;33.00;;;;;;5090281;28;20219;-85
2022/12/14 03:49:28;;;;;;;0.63;0.30;;;25.80;34.50;;;;;;5090212;28;20654;-85
2022/12/14 03:52:06;;;;;;;1.02;0.32;;;25.80;32.40;;;;;;5081942;28;20192;-85
2022/12/14 03:54:48;;;;;;;1.92;0.30;;;25.80;32.00;;;;;;5078849;28;20231;-84
2022/12/14 03:57:30;;;;;;;0.70;0.22;;;25.70;32.60;;;;;;5089685;28;20195;-85
2022/12/14 04:00:06;;;;;;;2.03;0.50;;;26.00;32.60;;;;;;5089621;28;20198;-86
2022/12/14 04:02:41;;;;;;;1.17;0.20;;;26.00;31.90;;;;;;5089438;28;20275;-85
2022/12/14 04:05:21;;;;;;;1.92;0.50;;;25.90;31.20;;;;;;5089819;28;20195;-85
2022/12/14 04:08:01;;;;;;;1.30;0.38;;;25.80;32.20;;;;;;5089737;28;20199;-85
2022/12/14 04:19:13;;;;;;;0.60;0.20;;;26.10;32.90;;;;;;5087635;28;20718;-84
2022/12/14 04:21:49;;;;;;;4.50;0.35;;;26.00;32.90;;;;;;5095088;28;20194;-84
2022/12/14 04:27:17;;;;;;;1.15;0.32;;;26.10;32.50;;;;;;5079886;28;20207;-83
2022/12/14 04:29:59;;;;;;;1.63;0.30;;;25.80;32.30;;;;;;5103400;28;20633;-84
2022/12/14 04:32:34;;;;;;;3.90;0.40;;;26.30;33.50;;;;;;5098529;28;20237;-85
2022/12/14 04:35:12;;;;;;;1.65;0.28;;;26.80;32.90;;;;;;5099679;28;20290;-84
2022/12/14 04:37:49;;;;;;;2.60;0.47;;;27.10;32.30;;;;;;5079288;28;20654;-83
2022/12/14 04:40:23;;;;;;;1.67;0.40;;;26.80;33.00;;;;;;5094947;28;20740;-84
2022/12/14 04:42:58;;;;;;;1.25;0.32;;;27.10;32.30;;;;;;5093359;28;20210;-84
2022/12/14 04:45:32;;;;;;;0.73;0.20;;;26.90;31.80;;;;;;5091583;28;20194;-83
2022/12/14 04:48:09;;;;;;;3.20;0.40;;;26.80;32.00;;;;;;5091564;28;20274;-83
2022/12/14 04:50:50;;;;;;;2.63;0.47;;;26.30;32.60;;;;;;5081911;28;20196;-84
2022/12/14 04:53:28;;;;;;;1.65;0.30;;;25.70;33.80;;;;;;5097058;28;20219;-85
2022/12/14 04:56:09;;;;;;;0.85;0.20;;;25.70;34.90;;;;;;5097147;28;20195;-85
2022/12/14 04:58:41;;;;;;;4.20;0.30;;;26.20;33.80;;;;;;5100753;28;20202;-84
2022/12/14 05:01:25;;;;;;;2.88;0.55;;;26.10;32.40;;;;;;5100591;28;20227;-85
2022/12/14 05:04:05;;;;;;;0.90;0.30;;;26.30;33.30;;;;;;5089844;28;20200;-86
2022/12/14 05:06:45;;;;;;;1.02;0.25;;;26.60;32.50;;;;;;5096397;28;20277;-84
2022/12/14 05:09:26;;;;;;;1.27;0.22;;;26.70;33.10;;;;;;5093835;28;20190;-84
2022/12/14 05:12:07;;;;;;;0.70;0.25;;;27.20;33.40;;;;;;5087493;28;20195;-83
2022/12/14 05:14:43;;;;;;;2.08;0.22;;;27.20;32.30;;;;;;5085512;28;20694;-83
2022/12/14 05:17:16;;;;;;;0.65;0.20;;;27.10;32.70;;;;;;5096230;28;20187;-84
2022/12/14 05:19:50;;;;;;;1.85;0.35;;;27.30;33.60;;;;;;5096324;28;20202;-84
2022/12/14 05:22:21;;;;;;;1.52;0.30;;;27.50;32.80;;;;;;5095180;28;20650;-84
2022/12/14 05:24:54;;;;;;;1.02;0.30;;;27.10;33.60;;;;;;5094733;28;20249;-85
2022/12/14 05:27:28;;;;;;;3.25;0.40;;;27.60;34.00;;;;;;5095471;28;20203;-85
2022/12/14 05:29:59;;;;;;;1.58;0.30;;;27.90;33.60;;;;;;5094683;28;20282;-86
2022/12/14 05:32:31;;;;;;;2.08;0.32;;;27.80;32.80;;;;;;5102485;28;20191;-85
2022/12/14 05:35:02;;;;;;;2.15;0.50;;;27.50;32.90;;;;;;5095342;28;20224;-85
2022/12/14 05:37:33;;;;;;;1.90;0.25;;;27.60;32.90;;;;;;5077976;28;20291;-85
2022/12/14 05:40:06;;;;;;;1.02;0.30;;;28.00;32.70;;;;;;5081929;28;20188;-85
2022/12/14 05:42:37;;;;;;;0.50;0.30;;;27.40;33.30;;;;;;5094552;28;20278;-85
2022/12/14 05:45:09;;;;;;;0.50;0.20;;;27.70;34.10;;;;;;5095432;28;20199;-83
2022/12/14 05:47:39;;;;;;;0.82;0.55;;;27.80;34.30;;;;;;5090631;28;20223;-83
2022/12/14 05:50:11;;;;;;;0.52;0.35;;;27.40;33.30;;;;;;5094217;28;20192;-84
2022/12/14 05:52:42;;;;;;;1.38;0.40;;;27.50;33.60;;;;;;5093315;28;20278;-85
2022/12/14 05:55:15;;;;;;;1.95;0.47;;;27.60;33.70;;;;;;5092995;28;20231;-84
2022/12/14 05:57:45;;;;;;;2.10;0.20;;;27.90;34.80;;;;;;5093154;28;20551;-84
2022/12/14 06:00:17;;;;;;;2.20;0.38;;;28.60;34.10;;;;;;5092231;28;20205;-83
2022/12/14 06:02:48;;;;;;;1.33;0.30;;;28.60;32.60;;;;;;5091977;28;20203;-84
2022/12/14 06:05:19;;;;;;;1.25;0.40;;;27.80;33.60;;;;;;5092206;28;20203;-85
2022/12/14 06:07:50;;;;;;;0.55;0.30;;;27.30;34.30;;;;;;5092145;28;20621;-85
2022/12/14 06:10:23;;;;;;;2.05;0.40;;;27.10;34.20;;;;;;5091786;28;20199;-85
2022/12/14 06:12:55;;;;;;;1.75;0.80;;;26.90;34.00;;;;;;5091851;28;20282;-85
2022/12/14 06:15:27;;;;;;;0.17;0.15;;;27.10;33.90;;;;;;5083659;28;20249;-84
2022/12/14 06:17:58;;;;;;;1.15;0.50;;;27.10;33.30;;;;;;5082963;28;20199;-83
2022/12/14 06:20:29;;;;;;;0.77;0.40;;;26.90;34.90;;;;;;5084950;28;20233;-82
2022/12/14 06:22:59;;;;;;;4.57;0.50;;;26.80;34.90;;;;;;5076619;28;20191;-86
2022/12/14 06:25:32;;;;;;;3.03;0.50;;;27.30;35.10;;;;;;5091049;28;20234;-84
2022/12/14 06:28:03;;;;;;;1.48;0.40;;;27.50;34.40;;;;;;5083444;28;20202;-83
2022/12/14 06:30:34;;;;;;;0.70;0.30;;;28.20;34.10;;;;;;5084066;28;20547;-83
2022/12/14 06:33:05;;;;;;;0.88;0.30;;;28.20;33.00;;;;;;5090483;28;20242;-83
2022/12/14 06:35:36;;;;;;;1.80;0.75;;;27.60;34.40;;;;;;5091995;28;20234;-83
2022/12/14 06:38:07;;;;;;;1.70;0.77;;;27.80;34.00;;;;;;5093581;28;20680;-83
2022/12/14 06:40:40;;;;;;;2.20;0.90;;;28.10;34.20;;;;;;5091395;28;20257;-83
2022/12/14 06:43:11;;;;;;;3.45;1.80;;;27.50;34.00;;;;;;5088812;28;20213;-82
2022/12/14 06:45:41;;;;;;;2.03;0.40;;;26.90;34.80;;;;;;5075880;28;20199;-83
2022/12/14 06:48:12;;;;;;;1.70;0.70;;;25.90;35.80;;;;;;5088691;28;20215;-83
2022/12/14 06:50:44;;;;;;;2.70;0.60;;;26.60;35.70;;;;;;5082662;28;20196;-83
2022/12/14 06:53:16;;;;;;;1.17;0.55;;;27.40;35.00;;;;;;5086424;28;20203;-81
2022/12/14 06:55:48;;;;;;;2.40;0.40;;;28.00;34.40;;;;;;5094817;28;20231;-82
2022/12/14 06:58:22;;;;;;;3.05;1.10;;;28.50;33.10;;;;;;5085151;28;20290;-83
2022/12/14 07:00:53;;;;;;;4.10;0.82;;;28.40;33.40;;;;;;5090865;28;20570;-82
2022/12/14 07:03:24;;;;;;;1.63;0.47;;;28.40;33.40;;;;;;5086341;28;20203;-83
2022/12/14 07:05:59;;;;;;;1.73;1.42;;;28.10;33.80;;;;;;5090167;28;20202;-83
2022/12/14 07:08:30;;;;;;;7.13;4.10;;;27.90;34.60;;;;;;5090690;28;20205;-83
2022/12/14 07:11:06;;;;;;;3.65;1.42;;;27.90;33.00;;;;;;5082892;28;20202;-83
2022/12/14 07:13:38;;;;;;;3.88;1.48;;;28.00;33.50;;;;;;5089738;28;20570;-82
2022/12/14 07:16:10;;;;;;;1.98;1.27;;;28.20;33.40;;;;;;5090845;28;20223;-82
2022/12/14 07:18:41;;;;;;;0.73;0.57;;;28.60;33.70;;;;;;5092080;28;20630;-82
2022/12/14 07:21:13;;;;;;;1.70;0.70;;;28.50;33.00;;;;;;5079684;28;20578;-82
2022/12/14 07:23:45;;;;;;;5.97;4.65;;;28.20;33.40;;;;;;5081960;28;20192;-83
2022/12/14 07:26:19;;;;;;;4.97;2.92;;;28.40;33.30;;;;;;5085315;28;20583;-82
2022/12/14 07:28:50;;;;;;;1.52;0.70;;;27.60;34.30;;;;;;5077010;28;20294;-83
2022/12/14 07:31:23;;;;;;;4.43;1.60;;;27.30;34.70;;;;;;5089785;28;20195;-83
2022/12/14 07:33:56;;;;;;;2.13;0.50;;;27.60;34.60;;;;;;5087811;28;20230;-83
2022/12/14 07:36:28;;;;;;;3.88;0.52;;;27.90;33.90;;;;;;5084721;28;20197;-83
2022/12/14 07:39:00;;;;;;;1.25;0.55;;;27.70;34.00;;;;;;5090580;28;20191;-80
2022/12/14 07:41:34;;;;;;;0.40;0.20;;;27.50;34.30;;;;;;5090306;28;20256;-83
2022/12/14 07:44:05;;;;;;;1.70;0.60;;;27.00;34.30;;;;;;5090941;28;20255;-84
2022/12/14 07:46:35;;;;;;;0.95;0.47;;;26.90;34.80;;;;;;5090168;28;20302;-83
2022/12/14 07:49:07;;;;;;;0.68;0.40;;;27.30;34.40;;;;;;5082760;28;20196;-83
2022/12/14 07:51:40;;;;;;;1.42;0.77;;;26.90;34.70;;;;;;5090952;28;20629;-83
2022/12/14 07:54:12;;;;;;;3.97;1.20;;;27.10;34.90;;;;;;5094677;28;20227;-82
2022/12/14 07:56:46;;;;;;;1.80;0.77;;;26.50;35.80;;;;;;5082431;28;20204;-82
2022/12/14 07:59:19;;;;;;;4.55;1.50;;;26.60;36.00;;;;;;5093621;28;20195;-82
2022/12/14 08:01:50;;;;;;;3.08;1.55;;;25.90;36.40;;;;;;5096001;28;20240;-82
2022/12/14 08:04:21;;;;;;;0.77;0.47;;;25.50;36.60;;;;;;5094288;28;20195;-82
2022/12/14 08:06:53;;;;;;;2.45;0.70;;;24.80;37.80;;;;;;5089542;28;20457;-82
2022/12/14 08:09:24;;;;;;;1.02;0.50;;;24.50;38.40;;;;;;5089857;28;20263;-82
2022/12/14 08:11:57;;;;;;;4.10;1.40;;;23.80;38.50;;;;;;5088884;28;20191;-82
2022/12/14 08:14:28;;;;;;;2.15;1.00;;;23.40;39.90;;;;;;5091886;28;20239;-82
2022/12/14 08:16:59;;;;;;;5.57;1.55;;;23.30;40.00;;;;;;5094241;28;20203;-82
2022/12/14 08:19:30;;;;;;;1.30;0.70;;;23.10;40.20;;;;;;5093978;28;20195;-82
2022/12/14 08:22:00;;;;;;;2.22;0.70;;;22.70;41.30;;;;;;5084513;28;20192;-83
2022/12/14 08:24:31;;;;;;;4.03;0.73;;;22.60;41.50;;;;;;5088021;28;20195;-83
2022/12/14 08:27:05;;;;;;;2.33;0.90;;;22.60;41.80;;;;;;5094477;28;20187;-83
2022/12/14 08:29:35;;;;;;;3.58;1.08;;;22.60;42.70;;;;;;5091926;28;20555;-83
2022/12/14 08:32:08;;;;;;;2.97;0.55;;;22.40;41.80;;;;;;5094849;28;20658;-83
2022/12/14 08:34:39;;;;;;;0.73;0.50;;;22.30;42.60;;;;;;5084344;28;20886;-83
2022/12/14 08:37:10;;;;;;;1.33;0.50;;;22.40;42.00;;;;;;5082508;28;20286;-83
2022/12/14 08:39:41;;;;;;;1.52;0.50;;;22.20;41.80;;;;;;5075736;28;20286;-83
2022/12/14 08:42:15;;;;;;;2.08;0.80;;;22.20;41.70;;;;;;5092993;28;20654;-84
2022/12/14 08:44:46;;;;;;;3.80;1.75;;;22.10;42.30;;;;;;5091794;28;20207;-83
2022/12/14 08:47:16;;;;;;;3.10;1.35;;;22.00;41.60;;;;;;5092161;28;20950;-84
2022/12/14 08:49:47;;;;;;;1.83;0.80;;;22.00;42.10;;;;;;5092589;28;20286;-84
2022/12/14 08:52:20;;;;;;;1.58;0.70;;;22.00;42.50;;;;;;5084282;28;20191;-83
2022/12/14 08:54:51;;;;;;;2.00;0.70;;;22.00;42.10;;;;;;5089981;28;20263;-83
2022/12/14 08:57:23;;;;;;;2.05;0.80;;;21.90;42.00;;;;;;5088103;28;20196;-83
2022/12/14 08:59:55;;;;;;;1.67;1.02;;;21.70;42.20;;;;;;5088394;28;20288;-83
2022/12/14 09:02:26;;;;;;;1.85;0.73;;;21.70;42.60;;;;;;5084351;28;20279;-84
2022/12/14 09:04:57;;;;;;;17.77;6.68;;;21.70;42.30;;;;;;5080326;28;20240;-83
2022/12/14 09:07:28;;;;;;;2.33;1.52;;;21.50;42.70;;;;;;5091331;28;20196;-84
2022/12/14 09:09:59;;;;;;;7.43;3.45;;;21.50;42.80;;;;;;5090367;28;20203;-84
2022/12/14 09:12:32;;;;;;;20.52;8.73;;;21.50;42.70;;;;;;5086022;28;20195;-84
2022/12/14 09:15:03;;;;;;;6.63;1.75;;;21.50;42.60;;;;;;5090751;28;20612;-84
2022/12/14 09:17:34;;;;;;;10.02;4.07;;;21.50;42.80;;;;;;5092181;28;20252;-84
2022/12/14 09:20:05;;;;;;;3.08;1.75;;;21.50;42.80;;;;;;5091259;28;20187;-84
2022/12/14 09:22:36;;;;;;;3.13;1.40;;;21.30;43.00;;;;;;5092013;28;20216;-84
2022/12/14 09:25:09;;;;;;;3.15;1.27;;;21.10;44.00;;;;;;5091759;28;20226;-84
2022/12/14 09:27:42;;;;;;;6.65;3.55;;;21.20;44.10;;;;;;5091552;28;20670;-83
2022/12/14 09:30:13;;;;;;;4.10;2.05;;;21.30;44.10;;;;;;5088953;28;20199;-83
2022/12/14 09:32:45;;;;;;;9.63;6.72;;;21.30;44.20;;;;;;5091859;28;20202;-83
2022/12/14 09:35:16;;;;;;;2.03;1.50;;;21.30;44.40;;;;;;5092221;28;20218;-82
2022/12/14 09:37:47;;;;;;;1.13;0.40;;;21.30;44.90;;;;;;5084788;28;20200;-82
2022/12/14 09:40:18;;;;;;;1.35;0.60;;;21.40;44.40;;;;;;5088200;28;20191;-82
2022/12/14 09:43:00;;;;;;;4.70;1.65;;;21.40;44.60;;;;;;5092930;28;20566;-82
2022/12/14 09:45:34;;;;;;;0.95;0.75;;;21.50;45.30;;;;;;5089637;28;20555;-83
2022/12/14 09:48:17;;;;;;;14.73;5.50;;;21.40;45.00;;;;;;5079677;28;20761;-84
2022/12/14 09:50:50;;;;;;;4.07;1.83;;;21.30;44.80;;;;;;5090908;28;20302;-82
2022/12/14 09:53:22;;;;;;;1.25;0.80;;;21.20;45.60;;;;;;5092263;28;20285;-83
2022/12/14 09:55:55;;;;;;;1.13;0.73;;;21.30;45.80;;;;;;5090861;28;20694;-82
2022/12/14 09:58:29;;;;;;;1.20;0.55;;;21.20;45.80;;;;;;5089427;28;20594;-82
2022/12/14 10:01:09;;;;;;;2.58;1.40;;;21.20;45.70;;;;;;5091102;28;20295;-86
2022/12/14 10:03:53;;;;;;;0.60;0.45;;;21.10;46.30;;;;;;5091858;28;20203;-84
2022/12/14 10:06:36;;;;;;;3.00;1.30;;;21.10;46.20;;;;;;5091113;28;20226;-83
2022/12/14 10:09:16;;;;;;;1.67;0.93;;;21.00;46.50;;;;;;5089843;28;20642;-84
2022/12/14 10:11:57;;;;;;;0.82;0.40;;;21.00;46.70;;;;;;5089996;28;20603;-83
2022/12/14 10:14:37;;;;;;;0.75;0.50;;;21.00;46.90;;;;;;5086463;28;20227;-83
2022/12/14 10:17:15;;;;;;;1.65;0.70;;;20.90;46.90;;;;;;5090891;28;20645;-83
2022/12/14 10:19:54;;;;;;;1.13;0.40;;;21.00;47.00;;;;;;5091928;28;20683;-83
2022/12/14 10:22:29;;;;;;;2.28;0.40;;;20.90;47.20;;;;;;5071461;28;20250;-82
2022/12/14 10:25:07;;;;;;;1.10;0.55;;;20.80;47.30;;;;;;5076244;28;20195;-84
2022/12/14 10:27:39;;;;;;;1.38;0.35;;;20.80;47.70;;;;;;5086778;28;20294;-83
2022/12/14 10:30:19;;;;;;;0.77;0.30;;;20.80;48.10;;;;;;5090778;28;20287;-83
2022/12/14 10:32:53;;;;;;;1.10;0.50;;;20.70;47.70;;;;;;5079876;28;20187;-82
2022/12/14 10:35:30;;;;;;;0.45;0.40;;;20.80;47.90;;;;;;5089352;28;20219;-83
2022/12/14 10:38:06;;;;;;;1.38;0.43;;;20.80;48.10;;;;;;5090888;28;20205;-83
2022/12/14 10:40:37;;;;;;;0.43;0.30;;;20.80;48.40;;;;;;5090307;28;20205;-83
2022/12/14 10:43:26;;;;;;;1.83;0.20;;;20.80;48.40;;;;;;5091426;28;20203;-82
2022/12/14 10:46:07;;;;;;;2.05;0.50;;;20.80;48.50;;;;;;5097092;28;20219;-83
2022/12/14 10:48:53;;;;;;;2.38;0.50;;;20.70;48.60;;;;;;5100268;28;20194;-84
2022/12/14 10:54:24;;;;;;;1.33;0.47;;;20.60;48.80;;;;;;5095400;28;20191;-84
2022/12/14 10:56:56;;;;;;;0.47;0.25;;;20.60;48.90;;;;;;5073708;28;20214;-84
2022/12/14 10:59:30;;;;;;;0.90;0.45;;;20.60;48.60;;;;;;5089807;28;20207;-83
2022/12/14 11:02:08;;;;;;;1.92;0.30;;;20.70;48.80;;;;;;5081284;28;20224;-84
2022/12/14 11:04:41;;;;;;;1.08;0.40;;;20.80;49.00;;;;;;5096964;28;20195;-82
2022/12/14 11:07:14;;;;;;;1.08;0.38;;;20.70;48.80;;;;;;5090462;28;20611;-83
2022/12/14 11:09:47;;;;;;;2.15;0.45;;;20.70;48.80;;;;;;5093576;28;20192;-83
2022/12/14 11:12:24;;;;;;;0.52;0.30;;;20.50;49.40;;;;;;5092180;28;20192;-83
2022/12/14 11:14:57;;;;;;;0.98;0.47;;;20.40;49.20;;;;;;5093748;28;20234;-82
2022/12/14 11:17:41;;;;;;;0.85;0.40;;;20.50;50.10;;;;;;5079459;28;20203;-82
2022/12/14 11:20:21;;;;;;;0.65;0.28;;;20.50;49.50;;;;;;5094587;28;20191;-84
2022/12/14 11:22:55;;;;;;;0.43;0.25;;;20.50;49.70;;;;;;5091741;28;20646;-82
2022/12/14 11:25:40;;;;;;;1.35;0.40;;;20.40;50.50;;;;;;5089964;28;20199;-82
2022/12/14 11:28:31;;;;;;;1.52;0.20;;;20.60;50.40;;;;;;5094477;28;20209;-84
2022/12/14 11:31:05;;;;;;;3.70;0.43;;;20.60;51.20;;;;;;5072162;28;20631;-83
2022/12/14 11:33:52;;;;;;;1.27;0.40;;;20.60;50.60;;;;;;5088400;28;20198;-83
2022/12/14 11:36:29;;;;;;;0.90;0.47;;;20.70;52.40;;;;;;5092060;28;20261;-83
2022/12/14 11:39:13;;;;;;;2.05;0.60;;;20.70;55.30;;;;;;5094675;28;20191;-86
2022/12/14 11:41:49;;;;;;;1.77;0.50;;;20.70;57.10;;;;;;5093337;28;20252;-82
2022/12/14 11:44:27;;;;;;;2.30;0.50;;;20.70;58.80;;;;;;5093366;28;20605;-82
2022/12/14 11:47:07;;;;;;;2.65;0.65;;;20.80;61.00;;;;;;5073855;28;20215;-82
2022/12/14 11:49:47;;;;;;;0.80;0.50;;;20.70;60.50;;;;;;5087628;28;20179;-82
2022/12/14 11:52:19;;;;;;;0.65;0.50;;;20.70;60.30;;;;;;5091678;28;20205;-81
2022/12/14 11:55:05;;;;;;;2.45;0.90;;;20.70;61.30;;;;;;5091875;28;20718;-82
2022/12/14 11:57:38;;;;;;;1.60;0.50;;;20.70;60.70;;;;;;5090814;28;20205;-81
2022/12/14 12:00:23;;;;;;;1.17;0.30;;;20.70;61.20;;;;;;5087907;28;20187;-82
2022/12/14 12:03:02;;;;;;;1.05;0.38;;;20.60;62.20;;;;;;5091310;28;20550;-82
2022/12/14 12:05:36;;;;;;;0.63;0.40;;;20.70;62.80;;;;;;5092721;28;20191;-82
2022/12/14 12:08:07;;;;;;;4.00;0.73;;;20.50;63.30;;;;;;5073263;28;20199;-82
2022/12/14 12:10:42;;;;;;;1.88;0.32;;;20.60;67.30;;;;;;5079941;28;20200;-82
2022/12/14 12:13:23;;;;;;;1.58;0.50;;;20.60;72.30;;;;;;5091637;28;20226;-81
2022/12/14 12:15:57;;;;;;;1.55;0.40;;;20.50;77.80;;;;;;5092634;28;20266;-81
2022/12/14 12:18:37;;;;;;;2.20;0.50;;;20.50;84.30;;;;;;5092760;28;20198;-81
2022/12/14 12:21:15;;;;;;;1.45;0.32;;;20.40;88.00;;;;;;5089323;28;20195;-82
2022/12/14 12:23:51;;;;;;;2.05;0.70;;;20.40;90.40;;;;;;5092509;28;20199;-82
2022/12/14 12:26:29;;;;;;;3.85;0.73;;;20.40;91.60;;;;;;5088579;28;20195;-82
2022/12/14 12:29:06;;;;;;;2.40;0.50;;;20.30;94.00;;;;;;5072487;28;20238;-81
2022/12/14 12:31:42;;;;;;;2.78;0.50;;;20.30;95.80;;;;;;5084742;28;20199;-81
2022/12/14 12:34:21;;;;;;;0.88;0.35;;;20.30;97.00;;;;;;5088745;28;20244;-82
2022/12/14 12:36:56;;;;;;;2.78;0.50;;;20.20;99.20;;;;;;5090254;28;20219;-82
2022/12/14 12:39:29;;;;;;;2.05;0.50;;;20.10;99.90;;;;;;5093758;28;20241;-82
2022/12/14 12:42:12;;;;;;;1.48;0.47;;;20.10;99.90;;;;;;5091281;28;20278;-82
2022/12/14 12:44:51;;;;;;;3.38;0.90;;;20.20;99.90;;;;;;5081535;28;20204;-82
2022/12/14 12:47:29;;;;;;;2.25;0.65;;;20.10;99.90;;;;;;5088651;28;20226;-82
2022/12/14 12:50:03;;;;;;;2.40;0.50;;;19.90;99.90;;;;;;5094492;28;20220;-82
2022/12/14 12:52:42;;;;;;;5.53;0.75;;;20.00;99.90;;;;;;5093339;28;20197;-82
2022/12/14 12:55:23;;;;;;;5.13;0.90;;;20.00;99.90;;;;;;5091895;28;20187;-83
2022/12/14 12:57:56;;;;;;;4.50;0.70;;;19.90;99.90;;;;;;5083852;28;20200;-82
2022/12/14 13:00:29;;;;;;;4.18;0.80;;;19.70;99.90;;;;;;5087092;28;20252;-81
2022/12/14 13:03:04;;;;;;;4.35;0.55;;;19.70;99.90;;;;;;5093201;28;20206;-82
2022/12/14 13:05:40;;;;;;;2.72;0.60;;;19.70;99.90;;;;;;5093411;28;20199;-82
2022/12/14 13:08:23;;;;;;;3.75;0.85;;;19.70;99.90;;;;;;5093929;28;20195;-81
2022/12/14 13:10:55;;;;;;;2.38;0.50;;;19.60;99.90;;;;;;5097970;28;20195;-82
2022/12/14 13:13:31;;;;;;;2.72;0.60;;;19.70;99.90;;;;;;5087504;28;20207;-82
2022/12/14 13:16:09;;;;;;;3.80;0.68;;;19.70;99.90;;;;;;5093232;28;20214;-80
2022/12/14 13:18:45;;;;;;;5.63;0.80;;;19.70;99.90;;;;;;5096939;28;20691;-81
2022/12/14 13:21:27;;;;;;;2.30;0.63;;;19.60;99.90;;;;;;5088320;28;20191;-81
2022/12/14 13:24:20;;;;;;;4.68;0.65;;;19.50;99.90;;;;;;5102083;28;20578;-81
2022/12/14 13:27:11;;;;;;;1.20;0.50;;;19.60;99.90;;;;;;5092584;28;20196;-83
2022/12/14 13:30:06;;;;;;;1.52;0.50;;;19.60;99.90;;;;;;5092983;28;20188;-83
2022/12/14 13:32:49;;;;;;;5.50;0.90;;;19.50;99.90;;;;;;5092012;28;20230;-83
2022/12/14 13:35:34;;;;;;;2.60;0.60;;;19.50;99.90;;;;;;5093743;28;20198;-82
2022/12/14 13:38:29;;;;;;;3.92;0.52;;;19.10;99.90;;;;;;5092407;28;20259;-83
2022/12/14 13:41:16;;;;;;;3.28;0.57;;;19.10;99.90;;;;;;5092270;28;20195;-82